createdAt,value
2018-02-21T00:00:36.649Z,33.30
2018-02-21T00:03:13.956Z,41.07
2018-02-21T00:05:48.250Z,30.13
2018-02-21T00:08:23.118Z,33.80
2018-02-21T00:10:57.588Z,28.93
2018-02-21T00:13:32.406Z,33.17
2018-02-21T00:16:06.333Z,32.17
2018-02-21T00:18:40.125Z,31.47
2018-02-21T00:21:13.813Z,34.83
2018-02-21T00:23:47.628Z,34.77
2018-02-21T00:26:21.667Z,40.90
2018-02-21T00:28:57.342Z,29.37
2018-02-21T00:31:31.245Z,31.00
2018-02-21T00:34:06.606Z,30.53
2018-02-21T00:36:41.013Z,30.70
2018-02-21T00:39:16.348Z,28.80
2018-02-21T00:41:50.379Z,31.73
2018-02-21T00:44:24.210Z,31.53
2018-02-21T00:46:59.001Z,28.33
2018-02-21T00:49:33.690Z,28.83
2018-02-21T00:52:08.183Z,27.60
2018-02-21T00:54:42.141Z,29.17
2018-02-21T00:57:16.688Z,30.67
2018-02-21T00:59:51.416Z,28.67
2018-02-21T01:02:26.098Z,28.37
2018-02-21T01:05:00.248Z,29.87
2018-02-21T01:07:34.225Z,26.70
2018-02-21T01:10:08.191Z,30.97
2018-02-21T01:12:42.378Z,29.53
2018-02-21T01:15:16.959Z,27.80
2018-02-21T01:17:51.402Z,28.93
2018-02-21T01:20:25.068Z,31.60
2018-02-21T01:22:58.699Z,29.60
2018-02-21T01:25:34.110Z,28.53
2018-02-21T01:28:08.964Z,28.70
2018-02-21T01:30:43.174Z,29.40
2018-02-21T01:33:16.819Z,29.00
2018-02-21T01:35:50.638Z,30.00
2018-02-21T01:38:24.548Z,29.27
2018-02-21T01:40:58.293Z,28.70
2018-02-21T01:43:32.066Z,31.17
2018-02-21T01:46:07.567Z,30.50
2018-02-21T01:48:42.179Z,30.00
2018-02-21T01:51:16.919Z,30.40
2018-02-21T01:53:51.238Z,31.93
2018-02-21T01:56:26.078Z,30.70
2018-02-21T01:59:00.280Z,32.50
2018-02-21T02:01:34.724Z,31.63
2018-02-21T02:04:08.725Z,30.50
2018-02-21T02:06:42.710Z,31.13
2018-02-21T02:09:18.276Z,30.13
2018-02-21T02:11:52.317Z,33.17
2018-02-21T02:14:26.285Z,32.97
2018-02-21T02:17:00.932Z,35.23
2018-02-21T02:19:36.376Z,34.20
2018-02-21T02:22:11.097Z,37.97
2018-02-21T02:24:45.299Z,34.30
2018-02-21T02:27:19.792Z,36.90
2018-02-21T02:29:53.820Z,36.60
2018-02-21T02:32:28.261Z,35.00
2018-02-21T02:35:02.107Z,36.83
2018-02-21T02:37:35.832Z,36.03
2018-02-21T02:40:11.303Z,40.23
2018-02-21T02:42:45.510Z,35.47
2018-02-21T02:45:19.428Z,36.03
2018-02-21T02:47:54.111Z,36.50
2018-02-21T02:50:27.878Z,38.47
2018-02-21T02:53:01.877Z,36.10
2018-02-21T02:55:37.198Z,40.00
2018-02-21T02:58:11.296Z,38.63
2018-02-21T03:00:45.989Z,38.43
2018-02-21T03:03:20.563Z,38.70
2018-02-21T03:05:54.608Z,39.27
2018-02-21T03:08:28.300Z,36.90
2018-02-21T03:11:02.109Z,36.23
2018-02-21T03:13:35.871Z,37.20
2018-02-21T03:16:10.398Z,36.73
2018-02-21T03:18:44.647Z,35.53
2018-02-21T03:21:20.171Z,37.67
2018-02-21T03:23:54.925Z,36.40
2018-02-21T03:26:29.592Z,38.30
2018-02-21T03:29:03.994Z,35.97
2018-02-21T03:31:39.285Z,36.33
2018-02-21T03:34:13.520Z,38.60
2018-02-21T03:36:48.007Z,39.27
2018-02-21T03:39:22.102Z,38.53
2018-02-21T03:41:55.695Z,36.67
2018-02-21T03:44:29.486Z,37.27
2018-02-21T03:47:04.044Z,38.80
2018-02-21T03:49:38.476Z,39.33
2018-02-21T03:52:12.228Z,38.73
2018-02-21T03:54:47.640Z,37.87
2018-02-21T03:57:21.551Z,40.93
2018-02-21T03:59:59.059Z,40.47
2018-02-21T04:02:34.991Z,40.20
2018-02-21T04:05:10.247Z,39.97
2018-02-21T04:07:48.480Z,39.03
2018-02-21T04:10:23.167Z,41.40
2018-02-21T04:12:57.307Z,39.20
2018-02-21T04:15:31.913Z,37.97
2018-02-21T04:18:05.929Z,40.47
2018-02-21T04:20:40.181Z,38.23
2018-02-21T04:23:14.858Z,37.60
2018-02-21T04:25:49.291Z,37.20
2018-02-21T04:28:23.163Z,38.47
2018-02-21T04:30:58.529Z,40.60
2018-02-21T04:33:32.910Z,43.43
2018-02-21T04:36:07.009Z,40.63
2018-02-21T04:38:41.293Z,40.90
2018-02-21T04:41:15.720Z,41.60
2018-02-21T04:43:49.522Z,41.33
2018-02-21T04:46:23.902Z,41.03
2018-02-21T04:48:58.871Z,41.80
2018-02-21T04:51:33.166Z,42.53
2018-02-21T04:54:07.776Z,42.60
2018-02-21T04:59:43.726Z,40.50
2018-02-21T05:02:18.411Z,41.67
2018-02-21T05:04:53.070Z,43.03
2018-02-21T05:07:26.804Z,39.73
2018-02-21T05:10:02.463Z,39.77
2018-02-21T05:12:36.644Z,40.33
2018-02-21T05:15:12.234Z,39.67
2018-02-21T05:17:47.392Z,40.93
2018-02-21T05:20:22.069Z,39.53
2018-02-21T05:22:56.247Z,40.97
2018-02-21T05:25:30.843Z,41.20
2018-02-21T05:28:04.646Z,41.80
2018-02-21T05:30:40.064Z,40.97
2018-02-21T05:33:14.547Z,40.30
2018-02-21T05:35:49.320Z,41.20
2018-02-21T05:38:23.391Z,42.97
2018-02-21T05:40:57.246Z,41.63
2018-02-21T05:43:31.099Z,41.83
2018-02-21T05:46:04.974Z,40.50
2018-02-21T05:48:38.782Z,41.47
2018-02-21T05:51:12.488Z,40.20
2018-02-21T05:53:46.421Z,42.27
2018-02-21T05:56:20.160Z,42.20
2018-02-21T05:58:53.861Z,41.20
2018-02-21T06:01:27.560Z,42.77
2018-02-21T06:04:02.298Z,40.97
2018-02-21T06:06:37.794Z,42.27
2018-02-21T06:09:11.997Z,41.83
2018-02-21T06:11:46.421Z,42.93
2018-02-21T06:14:20.203Z,46.60
2018-02-21T06:16:54.810Z,42.80
2018-02-21T06:19:29.037Z,43.50
2018-02-21T06:22:03.489Z,43.37
2018-02-21T06:24:37.376Z,42.37
2018-02-21T06:27:11.006Z,42.13
2018-02-21T06:29:44.971Z,42.37
2018-02-21T06:32:19.630Z,42.63
2018-02-21T06:34:53.504Z,43.90
2018-02-21T06:37:27.949Z,44.20
2018-02-21T06:40:01.827Z,42.57
2018-02-21T06:42:35.594Z,44.83
2018-02-21T06:45:10.270Z,43.73
2018-02-21T06:47:44.888Z,47.50
2018-02-21T06:50:19.041Z,46.17
2018-02-21T06:52:53.662Z,46.40
2018-02-21T06:55:27.431Z,46.80
2018-02-21T06:58:01.175Z,45.87
2018-02-21T07:00:35.885Z,44.87
2018-02-21T07:03:09.975Z,45.97
2018-02-21T07:05:45.267Z,48.10
2018-02-21T07:08:19.293Z,46.33
2018-02-21T07:10:53.219Z,48.97
2018-02-21T07:13:27.131Z,44.30
2018-02-21T07:16:01.181Z,46.40
2018-02-21T07:18:35.827Z,44.67
2018-02-21T07:21:10.533Z,45.30
2018-02-21T07:23:45.249Z,45.13
2018-02-21T07:26:20.064Z,45.20
2018-02-21T07:28:53.935Z,46.40
2018-02-21T07:31:27.680Z,45.77
2018-02-21T07:34:01.404Z,45.27
2018-02-21T07:36:35.635Z,44.13
2018-02-21T07:39:09.724Z,43.67
2018-02-21T07:41:43.621Z,45.47
2018-02-21T07:44:18.318Z,45.37
2018-02-21T07:46:52.115Z,46.10
2018-02-21T07:49:26.749Z,44.50
2018-02-21T07:52:00.603Z,45.37
2018-02-21T07:54:35.203Z,46.33
2018-02-21T07:57:09.767Z,46.53
2018-02-21T07:59:44.527Z,43.83
2018-02-21T08:02:18.712Z,47.47
2018-02-21T08:04:52.510Z,46.93
2018-02-21T08:07:27.012Z,45.00
2018-02-21T08:10:00.951Z,46.10
2018-02-21T08:12:35.532Z,47.97
2018-02-21T08:15:09.547Z,47.20
2018-02-21T08:17:43.313Z,46.60
2018-02-21T08:20:17.860Z,46.93
2018-02-21T08:22:51.996Z,47.37
2018-02-21T08:25:25.843Z,44.53
2018-02-21T08:27:59.605Z,47.07
2018-02-21T08:30:33.244Z,47.03
2018-02-21T08:33:06.906Z,45.77
2018-02-21T08:35:40.623Z,47.60
2018-02-21T08:38:14.656Z,47.13
2018-02-21T08:40:48.383Z,45.83
2018-02-21T08:43:22.195Z,44.87
2018-02-21T08:45:56.199Z,51.20
2018-02-21T08:48:30.701Z,46.13
2018-02-21T08:51:04.580Z,45.20
2018-02-21T08:53:39.289Z,46.07
2018-02-21T08:56:13.218Z,45.30
2018-02-21T08:58:47.929Z,44.87
2018-02-21T09:01:21.978Z,44.57
2018-02-21T09:03:55.882Z,44.97
2018-02-21T09:06:29.569Z,46.37
2018-02-21T09:09:04.188Z,45.60
2018-02-21T09:11:38.201Z,42.53
2018-02-21T09:14:11.973Z,44.30
2018-02-21T09:16:45.903Z,40.60
2018-02-21T09:19:19.775Z,42.03
2018-02-21T09:21:54.593Z,42.77
2018-02-21T09:24:28.720Z,41.80
2018-02-21T09:27:02.458Z,41.90
2018-02-21T09:29:36.359Z,41.80
2018-02-21T09:32:10.299Z,42.30
2018-02-21T09:34:44.111Z,39.13
2018-02-21T09:37:17.810Z,40.63
2018-02-21T09:39:51.643Z,39.37
2018-02-21T09:42:25.251Z,39.57
2018-02-21T09:44:59.233Z,39.73
2018-02-21T09:47:33.767Z,38.30
2018-02-21T09:50:08.733Z,37.07
2018-02-21T09:52:44.183Z,37.63
2018-02-21T09:55:19.644Z,37.93
2018-02-21T09:57:54.071Z,37.57
2018-02-21T10:00:29.502Z,37.60
2018-02-21T10:03:03.601Z,36.73
2018-02-21T10:05:38.131Z,37.50
2018-02-21T10:08:11.933Z,35.83
2018-02-21T10:10:46.468Z,35.63
2018-02-21T10:13:20.389Z,34.57
2018-02-21T10:15:54.115Z,36.00
2018-02-21T10:18:27.886Z,33.33
2018-02-21T10:21:02.720Z,33.53
2018-02-21T10:23:37.396Z,31.63
2018-02-21T10:26:12.895Z,32.10
2018-02-21T10:28:47.254Z,31.80
2018-02-21T10:31:21.817Z,31.73
2018-02-21T10:33:55.889Z,29.77
2018-02-21T10:36:29.797Z,30.63
2018-02-21T10:39:03.583Z,29.50
2018-02-21T10:41:38.111Z,31.07
2018-02-21T10:44:11.832Z,30.90
2018-02-21T10:46:45.534Z,34.97
2018-02-21T10:49:19.198Z,33.23
2018-02-21T10:51:52.973Z,35.03
2018-02-21T10:54:28.435Z,34.00
2018-02-21T10:57:02.376Z,34.83
2018-02-21T10:59:37.040Z,31.83
2018-02-21T11:02:11.753Z,30.40
2018-02-21T11:04:45.414Z,35.50
2018-02-21T11:07:19.132Z,33.23
2018-02-21T11:09:53.103Z,31.90
2018-02-21T11:12:27.099Z,31.53
2018-02-21T11:15:02.064Z,34.97
2018-02-21T11:17:35.894Z,33.10
2018-02-21T11:20:09.950Z,31.10
2018-02-21T11:22:44.199Z,31.63
2018-02-21T11:25:18.672Z,33.07
2018-02-21T11:27:52.752Z,31.47
2018-02-21T11:30:26.380Z,35.07
2018-02-21T11:33:00.263Z,28.17
2018-02-21T11:35:34.007Z,30.33
2018-02-21T11:38:07.759Z,29.80
2018-02-21T11:40:41.564Z,29.97
2018-02-21T11:43:16.900Z,29.53
2018-02-21T11:45:50.895Z,31.63
2018-02-21T11:48:25.655Z,29.80
2018-02-21T11:50:59.531Z,28.70
2018-02-21T11:53:33.380Z,30.47
2018-02-21T11:56:08.037Z,29.53
2018-02-21T11:58:42.007Z,28.03
2018-02-21T12:01:15.655Z,30.40
2018-02-21T12:03:49.495Z,28.57
2018-02-21T12:06:23.361Z,28.10
2018-02-21T12:08:57.079Z,27.73
2018-02-21T12:11:31.694Z,29.10
2018-02-21T12:14:05.756Z,28.57
2018-02-21T12:16:39.419Z,27.43
2018-02-21T12:19:13.274Z,28.00
2018-02-21T12:21:47.086Z,29.00
2018-02-21T12:24:21.141Z,28.67
2018-02-21T12:26:55.541Z,29.73
2018-02-21T12:29:30.238Z,29.40
2018-02-21T12:32:05.071Z,28.90
2018-02-21T12:34:39.863Z,27.63
2018-02-21T12:37:13.986Z,26.77
2018-02-21T12:39:49.406Z,28.40
2018-02-21T12:42:23.337Z,28.43
2018-02-21T12:44:57.957Z,27.33
2018-02-21T12:47:31.875Z,27.53
2018-02-21T12:50:06.180Z,28.93
2018-02-21T12:52:40.363Z,26.37
2018-02-21T12:55:15.845Z,27.97
2018-02-21T12:57:50.553Z,27.33
2018-02-21T13:00:24.672Z,27.17
2018-02-21T13:02:59.291Z,26.70
2018-02-21T13:05:33.284Z,28.83
2018-02-21T13:08:06.958Z,26.67
2018-02-21T13:10:40.641Z,26.97
2018-02-21T13:13:15.273Z,26.00
2018-02-21T13:15:49.168Z,27.77
2018-02-21T13:18:23.830Z,27.23
2018-02-21T13:20:57.695Z,26.53
2018-02-21T13:23:35.059Z,26.77
2018-02-21T13:26:10.196Z,34.03
2018-02-21T13:28:43.912Z,28.27
2018-02-21T13:31:17.748Z,27.57
2018-02-21T13:33:51.424Z,30.13
2018-02-21T13:36:26.027Z,29.40
2018-02-21T13:39:01.455Z,28.30
2018-02-21T13:41:35.996Z,29.87
2018-02-21T13:44:09.699Z,26.50
2018-02-21T13:46:43.604Z,27.50
2018-02-21T13:49:17.416Z,25.03
2018-02-21T13:51:52.422Z,25.67
2018-02-21T13:54:27.070Z,25.33
2018-02-21T13:57:00.992Z,27.63
2018-02-21T13:59:36.404Z,25.50
2018-02-21T14:02:10.363Z,23.97
2018-02-21T14:04:43.998Z,24.10
2018-02-21T14:07:18.588Z,25.43
2018-02-21T14:09:52.467Z,24.77
2018-02-21T14:12:26.319Z,23.57
2018-02-21T14:15:00.971Z,24.73
2018-02-21T14:17:35.045Z,24.63
2018-02-21T14:20:09.000Z,25.73
2018-02-21T14:22:43.836Z,23.77
2018-02-21T14:25:17.836Z,25.03
2018-02-21T14:27:52.116Z,25.53
2018-02-21T14:30:25.886Z,23.20
2018-02-21T14:33:00.581Z,23.23
2018-02-21T14:35:35.031Z,22.83
2018-02-21T14:38:09.767Z,24.20
2018-02-21T14:40:43.766Z,22.60
2018-02-21T14:43:17.844Z,22.40
2018-02-21T14:45:52.508Z,21.80
2018-02-21T14:48:26.540Z,23.47
2018-02-21T14:51:00.351Z,21.27
2018-02-21T14:53:34.234Z,22.30
2018-02-21T14:56:08.610Z,23.13
2018-02-21T14:58:43.585Z,22.00
2018-02-21T15:01:17.586Z,23.47
2018-02-21T15:03:51.527Z,23.50
2018-02-21T15:06:25.307Z,22.77
2018-02-21T15:08:59.857Z,22.47
2018-02-21T15:11:34.505Z,21.40
2018-02-21T15:14:08.549Z,21.47
2018-02-21T15:16:42.275Z,23.13
2018-02-21T15:19:16.982Z,23.17
2018-02-21T15:21:51.648Z,20.83
2018-02-21T15:24:26.310Z,18.93
2018-02-21T15:27:04.119Z,21.07
2018-02-21T15:29:37.926Z,20.13
2018-02-21T15:32:13.366Z,21.40
2018-02-21T15:34:47.426Z,22.30
2018-02-21T15:37:21.322Z,22.53
2018-02-21T15:39:55.194Z,21.50
2018-02-21T15:42:28.887Z,21.87
2018-02-21T15:45:02.828Z,22.67
2018-02-21T15:47:36.667Z,22.70
2018-02-21T15:50:10.626Z,20.20
2018-02-21T15:52:45.305Z,30.37
2018-02-21T15:55:20.025Z,21.03
2018-02-21T15:57:54.016Z,22.93
2018-02-21T16:00:28.641Z,22.00
2018-02-21T16:03:03.530Z,18.57
2018-02-21T16:05:37.853Z,20.13
2018-02-21T16:08:11.444Z,20.67
2018-02-21T16:10:47.202Z,19.57
2018-02-21T16:13:21.053Z,21.17
2018-02-21T16:15:54.858Z,20.20
2018-02-21T16:18:28.638Z,19.43
2018-02-21T16:21:03.086Z,20.73
2018-02-21T16:23:37.216Z,21.17
2018-02-21T16:26:10.876Z,23.57
2018-02-21T16:28:44.610Z,21.27
2018-02-21T16:31:18.475Z,21.13
2018-02-21T16:33:53.789Z,20.07
2018-02-21T16:36:28.197Z,20.53
2018-02-21T16:39:02.123Z,19.93
2018-02-21T16:41:36.707Z,19.80
2018-02-21T16:44:10.723Z,19.23
2018-02-21T16:46:44.471Z,19.20
2018-02-21T16:49:18.315Z,21.80
2018-02-21T16:51:52.170Z,20.23
2018-02-21T16:54:27.633Z,20.33
2018-02-21T16:57:01.713Z,21.07
2018-02-21T16:59:35.376Z,21.90
2018-02-21T17:02:09.161Z,20.73
2018-02-21T17:04:43.964Z,18.93
2018-02-21T17:07:17.796Z,20.73
2018-02-21T17:09:51.780Z,20.10
2018-02-21T17:12:25.942Z,21.23
2018-02-21T17:15:00.851Z,19.70
2018-02-21T17:17:34.803Z,21.40
2018-02-21T17:20:08.758Z,22.73
2018-02-21T17:22:43.436Z,20.90
2018-02-21T17:25:18.005Z,20.47
2018-02-21T17:27:51.983Z,20.90
2018-02-21T17:30:26.674Z,22.77
2018-02-21T17:33:00.836Z,22.10
2018-02-21T17:35:35.466Z,18.33
2018-02-21T17:38:09.566Z,20.07
2018-02-21T17:40:49.019Z,21.23
2018-02-21T17:43:23.371Z,21.63
2018-02-21T17:45:57.293Z,21.40
2018-02-21T17:48:31.120Z,21.63
2018-02-21T17:51:05.036Z,20.83
2018-02-21T17:53:39.742Z,21.27
2018-02-21T17:56:13.730Z,20.60
2018-02-21T17:58:48.386Z,20.87
2018-02-21T18:01:22.420Z,22.37
2018-02-21T18:03:57.906Z,20.40
2018-02-21T18:06:31.887Z,20.93
2018-02-21T18:09:06.592Z,20.57
2018-02-21T18:11:40.468Z,20.50
2018-02-21T18:14:15.112Z,20.33
2018-02-21T18:16:49.226Z,20.20
2018-02-21T18:19:23.077Z,20.40
2018-02-21T18:21:57.158Z,20.87
2018-02-21T18:24:31.281Z,20.47
2018-02-21T18:27:05.057Z,22.80
2018-02-21T18:29:38.939Z,21.17
2018-02-21T18:32:14.259Z,23.60
2018-02-21T18:34:48.225Z,22.43
2018-02-21T18:37:21.985Z,21.40
2018-02-21T18:39:55.679Z,21.10
2018-02-21T18:42:30.338Z,21.00
2018-02-21T18:45:04.376Z,21.07
2018-02-21T18:47:38.104Z,20.50
2018-02-21T18:50:12.330Z,19.50
2018-02-21T18:52:47.467Z,25.27
2018-02-21T18:55:21.570Z,21.00
2018-02-21T18:57:56.085Z,19.80
2018-02-21T19:00:31.067Z,21.67
2018-02-21T19:03:05.449Z,21.33
2018-02-21T19:05:39.875Z,24.03
2018-02-21T19:08:14.383Z,21.90
2018-02-21T19:10:48.475Z,28.53
2018-02-21T19:13:22.638Z,26.50
2018-02-21T19:15:57.231Z,24.17
2018-02-21T19:18:31.989Z,27.80
2018-02-21T19:21:06.973Z,25.33
2018-02-21T19:23:41.625Z,28.03
2018-02-21T19:26:16.314Z,29.03
2018-02-21T19:28:51.093Z,23.87
2018-02-21T19:31:25.024Z,25.27
2018-02-21T19:33:59.748Z,26.77
2018-02-21T19:36:35.248Z,35.63
2018-02-21T19:39:09.212Z,26.47
2018-02-21T19:41:44.607Z,26.27
2018-02-21T19:44:18.537Z,25.27
2018-02-21T19:46:54.155Z,30.13
2018-02-21T19:49:28.184Z,24.83
2018-02-21T19:52:02.023Z,26.63
2018-02-21T19:54:37.429Z,25.70
2018-02-21T19:57:12.132Z,23.00
2018-02-21T19:59:46.066Z,25.00
2018-02-21T20:02:20.747Z,23.80
2018-02-21T20:04:56.543Z,26.67
2018-02-21T20:07:31.101Z,25.23
2018-02-21T20:10:05.159Z,23.67
2018-02-21T20:12:39.724Z,26.73
2018-02-21T20:15:14.453Z,25.53
2018-02-21T20:17:48.357Z,25.00
2018-02-21T20:20:22.809Z,24.20
2018-02-21T20:22:56.514Z,27.37
2018-02-21T20:25:32.037Z,26.77
2018-02-21T20:28:07.376Z,24.33
2018-02-21T20:30:41.609Z,26.83
2018-02-21T20:33:16.960Z,26.73
2018-02-21T20:35:51.621Z,25.70
2018-02-21T20:38:25.725Z,23.33
2018-02-21T20:40:59.667Z,27.73
2018-02-21T20:43:34.443Z,26.50
2018-02-21T20:46:08.364Z,25.73
2018-02-21T20:48:43.169Z,25.00
2018-02-21T20:51:17.595Z,28.13
2018-02-21T20:53:51.405Z,26.30
2018-02-21T20:56:25.943Z,26.97
2018-02-21T20:58:59.771Z,26.67
2018-02-21T21:01:33.780Z,25.40
2018-02-21T21:04:07.598Z,27.30
2018-02-21T21:06:42.187Z,25.20
2018-02-21T21:09:16.294Z,28.00
2018-02-21T21:11:50.432Z,29.37
2018-02-21T21:14:25.672Z,36.23
2018-02-21T21:17:00.411Z,27.33
2018-02-21T21:19:34.279Z,31.93
2018-02-21T21:22:08.979Z,27.47
2018-02-21T21:24:42.724Z,27.77
2018-02-21T21:27:17.379Z,29.30
2018-02-21T21:29:51.038Z,27.73
2018-02-21T21:32:25.870Z,28.13
2018-02-21T21:35:01.215Z,26.37
2018-02-21T21:37:35.168Z,25.60
2018-02-21T21:40:09.978Z,27.17
2018-02-21T21:42:45.340Z,27.27
2018-02-21T21:45:19.336Z,29.33
2018-02-21T21:47:53.921Z,28.67
2018-02-21T21:50:27.776Z,25.93
2018-02-21T21:53:02.895Z,23.37
2018-02-21T21:55:37.412Z,27.03
2018-02-21T21:58:11.429Z,27.07
2018-02-21T22:00:46.972Z,25.10
2018-02-21T22:03:21.531Z,26.80
2018-02-21T22:06:08.977Z,30.90
2018-02-21T22:08:44.552Z,27.27
2018-02-21T22:11:20.291Z,24.20
2018-02-21T22:13:54.764Z,24.10
2018-02-21T22:16:29.338Z,23.73
2018-02-21T22:19:03.303Z,25.90
2018-02-21T22:21:37.288Z,27.43
2018-02-21T22:24:12.523Z,28.83
2018-02-21T22:26:46.902Z,25.57
2018-02-21T22:29:20.584Z,28.03
2018-02-21T22:31:55.708Z,23.73
2018-02-21T22:34:30.690Z,23.80
2018-02-21T22:37:05.046Z,23.50
2018-02-21T22:39:38.946Z,24.33
2018-02-21T22:42:14.178Z,23.00
2018-02-21T22:44:48.435Z,25.33
2018-02-21T22:47:23.114Z,22.03
2018-02-21T22:49:57.233Z,26.57
2018-02-21T22:52:32.627Z,23.57
2018-02-21T22:55:06.639Z,22.80
2018-02-21T22:57:41.319Z,23.10
2018-02-21T23:00:15.798Z,22.17
2018-02-21T23:02:49.628Z,23.07
2018-02-21T23:05:24.746Z,22.10
2018-02-21T23:07:58.564Z,24.43
2018-02-21T23:10:32.698Z,21.00
2018-02-21T23:13:07.583Z,23.37
2018-02-21T23:15:41.355Z,24.30
2018-02-21T23:18:15.946Z,22.10
2018-02-21T23:20:49.799Z,23.23
2018-02-21T23:23:24.685Z,26.03
2018-02-21T23:25:58.579Z,22.53
2018-02-21T23:28:34.039Z,21.37
2018-02-21T23:31:08.495Z,23.10
2018-02-21T23:33:43.843Z,21.40
2018-02-21T23:36:18.114Z,23.83
2018-02-21T23:38:53.572Z,25.37
2018-02-21T23:41:29.148Z,24.20
2018-02-21T23:44:03.463Z,23.90
2018-02-21T23:46:38.100Z,23.13
2018-02-21T23:49:12.197Z,24.37
2018-02-21T23:51:46.885Z,24.83
2018-02-21T23:54:21.139Z,24.53
2018-02-21T23:56:55.735Z,23.37
2018-02-21T23:59:30.148Z,24.47
